Time;durP1;ratioP1;P1;durP2;ratioP2;P2;SDS_P1;SDS_P2;PMS_P1;PMS_P2;Temp;Humidity;BMP_temperature;BMP_pressure;BME280_temperature;BME280_humidity;BME280_pressure;Samples;Min_cycle;Max_cycle;Signal;HPM_P1;HPM_P2
2022/01/06 00:02:16;;;;;;;1.17;0.53;;;3.70;99.90;;;;;;5060693;28;20587;-78
2022/01/06 00:04:42;;;;;;;2.63;1.10;;;3.70;99.90;;;;;;5061130;28;20690;-79
2022/01/06 00:07:08;;;;;;;0.20;0.20;;;3.70;99.90;;;;;;5060403;28;20173;-78
2022/01/06 00:09:33;;;;;;;0.53;0.53;;;3.70;99.90;;;;;;5060465;28;20305;-79
2022/01/06 00:11:59;;;;;;;0.87;0.87;;;3.70;99.90;;;;;;5042406;28;20230;-78
2022/01/06 00:17:17;;;;;;;1.30;1.30;;;3.70;99.90;;;;;;5060262;28;20175;-78
2022/01/06 00:25:47;;;;;;;0.57;0.30;;;3.60;99.90;;;;;;5047583;28;20266;-78
2022/01/06 00:28:13;;;;;;;0.30;0.30;;;3.60;99.90;;;;;;5057559;28;20262;-78
2022/01/06 00:30:39;;;;;;;0.50;0.50;;;3.70;99.90;;;;;;5057518;28;20216;-78
2022/01/06 00:33:04;;;;;;;0.40;0.40;;;3.60;99.90;;;;;;5039515;28;20200;-77
2022/01/06 00:35:30;;;;;;;0.17;0.17;;;3.60;99.90;;;;;;5058264;28;20180;-77
2022/01/06 00:37:55;;;;;;;0.00;0.00;;;3.60;99.90;;;;;;5040256;28;20181;-78
2022/01/06 00:40:21;;;;;;;11.43;3.83;;;3.60;99.90;;;;;;5037435;28;20221;-76
2022/01/06 00:42:46;;;;;;;3.00;1.57;;;3.60;99.90;;;;;;5053733;28;20214;-77
2022/01/06 00:45:12;;;;;;;8.60;1.90;;;3.60;99.90;;;;;;5056795;28;20187;-78
2022/01/06 00:47:37;;;;;;;1.10;1.03;;;3.60;99.90;;;;;;5040266;28;20187;-78
2022/01/06 00:50:04;;;;;;;2.80;1.40;;;3.60;99.90;;;;;;5056795;28;20204;-78
2022/01/06 00:52:29;;;;;;;1.10;1.10;;;3.60;99.90;;;;;;5058137;28;20598;-78
2022/01/06 00:54:55;;;;;;;1.50;1.40;;;3.60;99.90;;;;;;5039457;28;20180;-79
2022/01/06 00:57:20;;;;;;;0.67;0.67;;;3.60;99.90;;;;;;5057295;28;20626;-79
2022/01/06 00:59:46;;;;;;;5.10;0.60;;;3.50;99.90;;;;;;5057420;28;20183;-79
2022/01/06 01:02:11;;;;;;;3.27;2.00;;;3.60;99.90;;;;;;5057463;28;20207;-79
2022/01/06 01:04:37;;;;;;;4.73;1.30;;;3.60;99.90;;;;;;5057857;28;20187;-81
2022/01/06 01:07:03;;;;;;;0.00;0.00;;;3.60;99.90;;;;;;5058937;28;20186;-80
2022/01/06 01:09:30;;;;;;;0.20;0.20;;;3.50;99.90;;;;;;5058797;28;20191;-78
2022/01/06 01:11:56;;;;;;;0.43;0.13;;;3.60;99.90;;;;;;5039196;28;20177;-80
2022/01/06 01:14:30;;;;;;;0.10;0.10;;;3.60;99.90;;;;;;5059931;28;20202;-80
2022/01/06 01:16:59;;;;;;;0.73;0.73;;;3.60;99.90;;;;;;5041942;28;20180;-79
2022/01/06 01:19:25;;;;;;;0.00;0.00;;;3.60;99.90;;;;;;5059530;28;20193;-80
2022/01/06 01:21:52;;;;;;;0.90;0.90;;;3.50;99.90;;;;;;5041869;28;20211;-79
2022/01/06 01:24:17;;;;;;;1.63;1.53;;;3.50;99.90;;;;;;5042609;28;20226;-78
2022/01/06 01:26:43;;;;;;;0.87;0.87;;;3.50;99.90;;;;;;5043251;28;20391;-79
2022/01/06 01:29:13;;;;;;;1.60;1.50;;;3.40;99.90;;;;;;5060675;28;20265;-79
2022/01/06 01:31:44;;;;;;;0.20;0.20;;;3.50;99.90;;;;;;5042345;28;20188;-79
2022/01/06 01:34:12;;;;;;;0.00;0.00;;;3.40;99.90;;;;;;5060239;28;20194;-79
2022/01/06 01:36:38;;;;;;;0.00;0.00;;;3.50;99.90;;;;;;5059304;28;20234;-79
2022/01/06 01:39:05;;;;;;;8.07;1.53;;;3.50;99.90;;;;;;5059913;28;20182;-79
2022/01/06 01:41:30;;;;;;;0.20;0.20;;;3.50;99.90;;;;;;5059381;28;20191;-78
2022/01/06 01:43:57;;;;;;;0.43;0.43;;;3.50;99.90;;;;;;5042126;28;20589;-79
2022/01/06 01:46:30;;;;;;;1.70;0.93;;;3.50;99.90;;;;;;5060555;28;20209;-80
2022/01/06 01:49:16;;;;;;;0.30;0.30;;;3.40;99.90;;;;;;5061932;28;20613;-81
2022/01/06 01:51:43;;;;;;;0.53;0.33;;;3.40;99.90;;;;;;5061698;28;20180;-79
2022/01/06 01:54:08;;;;;;;0.10;0.10;;;3.40;99.90;;;;;;5060679;28;20214;-79
2022/01/06 01:56:34;;;;;;;0.30;0.30;;;3.40;99.90;;;;;;5042068;28;20179;-78
2022/01/06 01:59:00;;;;;;;0.83;0.83;;;3.30;99.90;;;;;;5061010;28;20694;-78
2022/01/06 02:01:25;;;;;;;0.47;0.47;;;3.20;99.90;;;;;;5041078;28;20239;-78
2022/01/06 02:03:51;;;;;;;5.80;2.30;;;3.20;99.90;;;;;;5064385;28;20190;-78
2022/01/06 02:06:18;;;;;;;0.10;0.10;;;3.20;99.90;;;;;;5060294;28;20174;-78
2022/01/06 02:08:43;;;;;;;0.73;0.73;;;3.30;99.90;;;;;;5043522;28;20197;-78
2022/01/06 02:11:09;;;;;;;0.33;0.33;;;3.30;99.90;;;;;;5042086;28;20286;-77
2022/01/06 02:13:45;;;;;;;0.20;0.20;;;3.20;99.90;;;;;;5042474;28;20229;-78
2022/01/06 02:16:10;;;;;;;0.07;0.07;;;3.20;99.90;;;;;;5060179;28;20217;-78
2022/01/06 02:18:36;;;;;;;0.10;0.10;;;3.20;99.90;;;;;;5042167;28;20186;-77
2022/01/06 02:21:01;;;;;;;0.00;0.00;;;3.20;99.90;;;;;;5042771;28;20247;-79
2022/01/06 02:23:27;;;;;;;1.73;1.63;;;3.20;99.90;;;;;;5060629;28;20202;-77
2022/01/06 02:25:53;;;;;;;0.00;0.00;;;3.20;99.90;;;;;;5060312;28;20245;-77
2022/01/06 02:28:22;;;;;;;0.00;0.00;;;3.20;99.90;;;;;;5060408;28;20190;-78
2022/01/06 02:30:50;;;;;;;2.80;1.03;;;3.20;99.90;;;;;;5059682;28;20289;-78
2022/01/06 02:33:16;;;;;;;2.00;1.80;;;3.20;99.90;;;;;;5042454;28;20291;-78
2022/01/06 02:35:42;;;;;;;0.97;0.87;;;3.20;99.90;;;;;;5041751;28;20178;-77
2022/01/06 02:38:10;;;;;;;2.17;1.23;;;3.20;99.90;;;;;;5039393;28;20190;-77
2022/01/06 02:40:35;;;;;;;0.50;0.50;;;3.20;99.90;;;;;;5057822;28;20562;-78
2022/01/06 02:43:03;;;;;;;20.33;2.53;;;3.10;99.90;;;;;;5038001;28;20208;-77
2022/01/06 02:45:30;;;;;;;0.93;0.93;;;3.10;99.90;;;;;;5056128;28;20184;-77
2022/01/06 02:47:56;;;;;;;0.00;0.00;;;3.20;99.90;;;;;;5055880;28;20269;-78
2022/01/06 02:50:23;;;;;;;23.67;2.00;;;3.10;99.90;;;;;;5056111;28;20674;-78
2022/01/06 02:52:49;;;;;;;0.30;0.30;;;3.10;99.90;;;;;;5041097;28;20611;-78
2022/01/06 02:55:15;;;;;;;38.30;2.37;;;3.10;99.90;;;;;;5063293;28;20178;-78
2022/01/06 02:57:42;;;;;;;4.30;4.00;;;3.10;99.90;;;;;;5063686;28;20182;-77
2022/01/06 03:00:10;;;;;;;2.13;1.20;;;3.10;99.90;;;;;;5068392;28;20237;-77
2022/01/06 03:02:36;;;;;;;0.00;0.00;;;3.20;99.90;;;;;;5061791;28;20255;-77
2022/01/06 03:05:02;;;;;;;0.10;0.10;;;3.20;99.90;;;;;;5061992;28;20772;-77
2022/01/06 03:07:28;;;;;;;0.77;0.40;;;3.20;99.90;;;;;;5060712;28;20186;-78
2022/01/06 03:09:55;;;;;;;0.73;0.50;;;3.20;99.90;;;;;;5058945;28;20216;-79
2022/01/06 03:12:40;;;;;;;0.50;0.50;;;3.30;99.90;;;;;;5041977;28;20231;-77
2022/01/06 03:15:17;;;;;;;0.30;0.30;;;3.30;99.90;;;;;;5061210;28;20172;-78
2022/01/06 03:17:49;;;;;;;0.13;0.13;;;3.30;99.90;;;;;;5063619;28;20198;-78
2022/01/06 03:20:17;;;;;;;0.10;0.10;;;3.30;99.90;;;;;;5041424;28;20184;-76
2022/01/06 03:22:43;;;;;;;0.03;0.03;;;3.30;99.90;;;;;;5066850;28;20194;-77
2022/01/06 03:25:10;;;;;;;0.87;0.87;;;3.40;99.90;;;;;;5067457;28;20231;-75
2022/01/06 03:27:36;;;;;;;0.53;0.43;;;3.40;99.90;;;;;;5065103;28;20178;-75
2022/01/06 03:30:07;;;;;;;0.87;0.87;;;3.40;99.90;;;;;;5069917;28;20194;-77
2022/01/06 03:32:32;;;;;;;0.13;0.13;;;3.30;99.90;;;;;;5068338;28;20292;-76
2022/01/06 03:34:58;;;;;;;0.77;0.77;;;3.40;99.90;;;;;;5061228;28;20211;-75
2022/01/06 03:37:23;;;;;;;0.10;0.10;;;3.30;99.90;;;;;;5061884;28;20184;-75
2022/01/06 03:39:49;;;;;;;1.30;0.73;;;3.30;99.90;;;;;;5044430;28;20193;-76
2022/01/06 03:42:14;;;;;;;0.67;0.67;;;3.20;99.90;;;;;;5061452;28;20221;-76
2022/01/06 03:44:40;;;;;;;0.10;0.10;;;3.20;99.90;;;;;;5041108;28;20175;-76
2022/01/06 03:47:07;;;;;;;0.37;0.37;;;3.20;99.90;;;;;;5042528;28;20728;-76
2022/01/06 03:49:32;;;;;;;1.23;1.13;;;3.20;99.90;;;;;;5060051;28;20196;-76
2022/01/06 03:51:58;;;;;;;1.37;1.30;;;3.10;99.90;;;;;;5041125;28;20283;-75
2022/01/06 03:54:24;;;;;;;0.00;0.00;;;3.10;99.90;;;;;;5059074;28;20724;-75
2022/01/06 03:56:50;;;;;;;0.10;0.10;;;3.10;99.90;;;;;;5041690;28;20241;-76
2022/01/06 03:59:16;;;;;;;0.00;0.00;;;3.10;99.90;;;;;;5041579;28;20178;-75
2022/01/06 04:01:43;;;;;;;0.53;0.53;;;3.10;99.90;;;;;;5059522;28;20266;-76
2022/01/06 04:04:09;;;;;;;0.00;0.00;;;3.10;99.90;;;;;;5042847;28;20261;-76
2022/01/06 04:06:34;;;;;;;5.23;1.23;;;3.10;99.90;;;;;;5061062;28;20201;-76
2022/01/06 04:09:00;;;;;;;21.67;4.50;;;3.00;99.90;;;;;;5043203;28;20191;-76
2022/01/06 04:11:25;;;;;;;0.00;0.00;;;3.00;99.90;;;;;;5061465;28;20202;-76
2022/01/06 04:13:51;;;;;;;1.93;1.83;;;2.90;99.90;;;;;;5061068;28;20286;-76
2022/01/06 04:16:17;;;;;;;0.10;0.10;;;3.00;99.90;;;;;;5063050;28;20244;-76
2022/01/06 04:18:44;;;;;;;2.37;1.80;;;2.90;99.90;;;;;;5062599;28;20178;-77
2022/01/06 04:21:09;;;;;;;0.10;0.10;;;2.80;99.90;;;;;;5062231;28;20369;-77
2022/01/06 04:23:35;;;;;;;0.50;0.50;;;2.80;99.90;;;;;;5062308;28;20244;-77
2022/01/06 04:26:01;;;;;;;0.40;0.40;;;2.80;99.90;;;;;;5062812;28;20300;-77
2022/01/06 04:28:26;;;;;;;0.10;0.10;;;2.90;99.90;;;;;;5063125;28;20207;-77
2022/01/06 04:30:52;;;;;;;0.83;0.83;;;2.90;99.90;;;;;;5062887;28;20211;-77
2022/01/06 04:33:18;;;;;;;0.00;0.00;;;2.90;99.90;;;;;;5062288;28;20250;-77
2022/01/06 04:35:43;;;;;;;0.10;0.10;;;2.90;99.90;;;;;;5063153;28;20182;-75
2022/01/06 04:38:09;;;;;;;0.33;0.33;;;2.90;99.90;;;;;;5064834;28;20188;-76
2022/01/06 04:40:35;;;;;;;2.30;2.10;;;2.90;99.90;;;;;;5064248;28;20216;-76
2022/01/06 04:43:00;;;;;;;19.97;3.20;;;2.80;99.90;;;;;;5064082;28;20235;-76
2022/01/06 04:45:26;;;;;;;0.10;0.10;;;2.80;99.90;;;;;;5064851;28;20213;-77
2022/01/06 04:47:52;;;;;;;1.60;0.60;;;2.80;99.90;;;;;;5065593;28;20187;-77
2022/01/06 04:50:17;;;;;;;0.03;0.03;;;2.70;99.90;;;;;;5065591;28;20223;-77
2022/01/06 04:52:43;;;;;;;0.10;0.10;;;2.70;99.90;;;;;;5067008;28;20724;-77
2022/01/06 04:55:09;;;;;;;1.90;1.50;;;2.70;99.90;;;;;;5053194;28;20182;-77
2022/01/06 04:57:35;;;;;;;0.63;0.40;;;2.70;99.90;;;;;;5073054;28;20175;-77
2022/01/06 05:00:00;;;;;;;0.23;0.23;;;2.70;99.90;;;;;;5072951;28;20182;-76
2022/01/06 05:02:26;;;;;;;1.60;0.40;;;2.80;99.90;;;;;;5060956;28;20199;-77
2022/01/06 05:04:51;;;;;;;0.40;0.20;;;2.80;99.90;;;;;;5061817;28;20258;-77
2022/01/06 05:07:17;;;;;;;1.30;1.30;;;2.80;99.90;;;;;;5062445;28;20212;-77
2022/01/06 05:09:43;;;;;;;0.73;0.53;;;2.80;99.90;;;;;;5044805;28;20206;-77
2022/01/06 05:12:08;;;;;;;0.87;0.77;;;2.80;99.90;;;;;;5062458;28;20687;-76
2022/01/06 05:14:34;;;;;;;0.10;0.10;;;2.80;99.90;;;;;;5045141;28;20259;-77
2022/01/06 05:17:00;;;;;;;1.27;0.37;;;2.80;99.90;;;;;;5064702;28;20239;-77
2022/01/06 05:19:26;;;;;;;5.80;5.30;;;2.70;99.90;;;;;;5060953;28;20239;-77
2022/01/06 05:21:53;;;;;;;3.30;2.23;;;2.70;99.90;;;;;;5060441;28;20183;-76
2022/01/06 05:24:19;;;;;;;0.10;0.10;;;2.80;99.90;;;;;;5046143;28;20243;-77
2022/01/06 05:26:45;;;;;;;0.10;0.10;;;2.80;99.90;;;;;;5063151;28;20171;-76
2022/01/06 05:29:13;;;;;;;0.03;0.03;;;2.80;99.90;;;;;;5055311;28;20172;-76
2022/01/06 05:31:39;;;;;;;0.00;0.00;;;2.80;99.90;;;;;;5054448;28;20178;-76
2022/01/06 05:34:05;;;;;;;0.63;0.63;;;2.80;99.90;;;;;;5054900;28;20175;-77
2022/01/06 05:36:31;;;;;;;0.10;0.10;;;2.80;99.90;;;;;;5054693;28;20205;-77
2022/01/06 05:38:57;;;;;;;0.20;0.20;;;2.80;99.90;;;;;;5054643;28;20208;-77
2022/01/06 05:41:23;;;;;;;0.00;0.00;;;2.80;99.90;;;;;;5053773;28;20191;-76
2022/01/06 05:43:49;;;;;;;1.10;0.93;;;2.80;99.90;;;;;;5036036;28;20204;-76
2022/01/06 05:46:16;;;;;;;0.10;0.10;;;2.80;99.90;;;;;;5036447;28;20213;-77
2022/01/06 05:48:42;;;;;;;0.00;0.00;;;2.70;99.90;;;;;;5054359;28;20195;-77
2022/01/06 05:51:08;;;;;;;0.10;0.10;;;2.70;99.90;;;;;;5055390;28;20213;-77
2022/01/06 05:53:34;;;;;;;0.20;0.20;;;2.70;99.90;;;;;;5036221;28;20203;-76
2022/01/06 05:55:59;;;;;;;0.00;0.00;;;2.60;99.90;;;;;;5036065;28;20177;-76
2022/01/06 05:58:25;;;;;;;23.37;1.40;;;2.60;99.90;;;;;;5053718;28;20585;-76
2022/01/06 06:00:50;;;;;;;0.27;0.27;;;2.50;99.90;;;;;;5036193;28;20213;-78
2022/01/06 06:03:16;;;;;;;1.40;0.73;;;2.40;99.90;;;;;;5053737;28;20206;-79
2022/01/06 06:05:42;;;;;;;15.93;3.60;;;2.40;99.90;;;;;;5054382;28;20669;-78
2022/01/06 06:08:11;;;;;;;1.30;1.20;;;2.40;99.90;;;;;;5055689;28;20182;-77
2022/01/06 06:10:37;;;;;;;0.30;0.30;;;2.40;99.90;;;;;;5053550;28;20313;-78
2022/01/06 06:13:04;;;;;;;0.00;0.00;;;2.30;99.90;;;;;;5043616;28;20197;-74
2022/01/06 06:15:35;;;;;;;1.47;1.47;;;2.20;99.90;;;;;;5050488;28;20182;-76
2022/01/06 06:18:05;;;;;;;6.40;5.70;;;2.30;99.90;;;;;;5056480;28;20174;-78
2022/01/06 06:20:31;;;;;;;0.00;0.00;;;2.20;99.90;;;;;;5040055;28;20173;-77
2022/01/06 06:22:57;;;;;;;0.30;0.30;;;2.20;99.90;;;;;;5057269;28;20691;-77
2022/01/06 06:25:23;;;;;;;0.73;0.73;;;2.20;99.90;;;;;;5036425;28;20229;-76
2022/01/06 06:27:48;;;;;;;1.60;1.50;;;2.30;99.90;;;;;;5042014;28;20588;-76
2022/01/06 06:30:14;;;;;;;0.33;0.07;;;2.30;99.90;;;;;;5042746;28;20254;-77
2022/01/06 06:32:40;;;;;;;0.00;0.00;;;2.30;99.90;;;;;;5041542;28;20201;-77
2022/01/06 06:35:06;;;;;;;1.87;0.63;;;2.30;99.90;;;;;;5040664;28;20187;-76
2022/01/06 06:37:32;;;;;;;0.53;0.53;;;2.30;99.90;;;;;;5041099;28;20225;-77
2022/01/06 06:39:58;;;;;;;0.40;0.40;;;2.30;99.90;;;;;;5040224;28;20656;-76
2022/01/06 06:42:28;;;;;;;0.70;0.70;;;2.30;99.90;;;;;;5040477;28;20626;-77
2022/01/06 06:44:54;;;;;;;1.70;1.60;;;2.20;99.90;;;;;;5039033;28;20185;-76
2022/01/06 06:47:20;;;;;;;0.37;0.37;;;2.20;99.90;;;;;;5040805;28;20174;-76
2022/01/06 06:49:45;;;;;;;0.10;0.10;;;2.30;99.90;;;;;;5040708;28;20215;-77
2022/01/06 06:52:11;;;;;;;0.10;0.10;;;2.30;99.90;;;;;;5040558;28;20230;-76
2022/01/06 06:54:36;;;;;;;0.20;0.20;;;2.30;99.90;;;;;;5039627;28;20217;-77
2022/01/06 06:57:02;;;;;;;3.30;2.40;;;2.30;99.90;;;;;;5040329;28;20190;-77
2022/01/06 06:59:28;;;;;;;1.90;1.17;;;2.30;99.90;;;;;;5038651;28;20178;-77
2022/01/06 07:01:53;;;;;;;0.70;0.67;;;2.40;99.90;;;;;;5039674;28;20179;-78
2022/01/06 07:04:19;;;;;;;1.50;1.47;;;2.30;99.90;;;;;;5041650;28;20172;-78
2022/01/06 07:06:45;;;;;;;0.57;0.57;;;2.40;99.90;;;;;;5041627;28;20251;-78
2022/01/06 07:09:10;;;;;;;0.87;0.87;;;2.40;99.90;;;;;;5041567;28;20187;-78
2022/01/06 07:11:36;;;;;;;0.87;0.87;;;2.40;99.90;;;;;;5040730;28;20292;-78
2022/01/06 07:14:02;;;;;;;0.93;0.93;;;2.50;99.90;;;;;;5040984;28;20211;-78
2022/01/06 07:16:28;;;;;;;0.60;0.60;;;2.50;99.90;;;;;;5040867;28;20364;-78
2022/01/06 07:18:53;;;;;;;2.93;1.03;;;2.60;99.90;;;;;;5040401;28;20598;-78
2022/01/06 07:21:19;;;;;;;3.40;1.40;;;2.70;99.90;;;;;;5039785;28;20191;-76
2022/01/06 07:23:44;;;;;;;0.77;0.77;;;2.80;99.90;;;;;;5040376;28;20714;-78
2022/01/06 07:26:10;;;;;;;5.53;3.60;;;2.60;99.90;;;;;;5040165;28;20200;-78
2022/01/06 07:28:36;;;;;;;0.83;0.83;;;2.60;99.90;;;;;;5040058;28;20595;-78
2022/01/06 07:31:04;;;;;;;2.83;1.50;;;2.60;99.90;;;;;;5040203;28;20202;-79
2022/01/06 07:33:29;;;;;;;0.30;0.30;;;2.70;99.90;;;;;;5040491;28;20202;-79
2022/01/06 07:35:55;;;;;;;0.50;0.50;;;2.60;99.90;;;;;;5040238;28;20180;-79
2022/01/06 07:38:21;;;;;;;0.30;0.20;;;2.60;99.90;;;;;;5039740;28;20181;-77
2022/01/06 07:40:46;;;;;;;0.83;0.83;;;2.70;99.90;;;;;;5039710;28;20223;-76
2022/01/06 07:43:12;;;;;;;0.77;0.77;;;2.70;99.90;;;;;;5038966;28;20195;-78
2022/01/06 07:45:38;;;;;;;0.43;0.43;;;2.70;99.90;;;;;;5039804;28;20312;-77
2022/01/06 07:48:14;;;;;;;0.20;0.20;;;2.70;99.90;;;;;;5039689;28;20192;-77
2022/01/06 07:50:41;;;;;;;4.50;0.70;;;2.70;99.90;;;;;;5038609;28;20287;-77
2022/01/06 07:53:07;;;;;;;0.00;0.00;;;2.70;99.90;;;;;;5038259;28;20195;-77
2022/01/06 07:55:32;;;;;;;1.13;1.13;;;2.70;99.90;;;;;;5038304;28;20175;-77
2022/01/06 07:57:58;;;;;;;0.30;0.30;;;2.70;99.90;;;;;;5038822;28;20262;-78
2022/01/06 08:00:25;;;;;;;1.80;1.70;;;2.70;99.90;;;;;;5039254;28;20177;-77
2022/01/06 08:02:51;;;;;;;0.83;0.83;;;2.70;99.90;;;;;;5035690;28;20432;-77
2022/01/06 08:05:19;;;;;;;0.43;0.43;;;2.70;99.90;;;;;;5038122;28;20180;-77
2022/01/06 08:07:45;;;;;;;0.20;0.20;;;2.70;99.90;;;;;;5038736;28;20214;-78
2022/01/06 08:10:11;;;;;;;0.57;0.57;;;2.80;99.90;;;;;;5037054;28;20204;-77
2022/01/06 08:12:37;;;;;;;0.13;0.13;;;2.80;99.90;;;;;;5037202;28;20207;-78
2022/01/06 08:15:03;;;;;;;1.80;1.67;;;2.80;99.90;;;;;;5038064;28;20240;-77
2022/01/06 08:17:29;;;;;;;2.03;1.93;;;2.90;99.90;;;;;;5037496;28;20329;-77
2022/01/06 08:19:55;;;;;;;0.10;0.10;;;3.00;99.90;;;;;;5038379;28;20229;-77
2022/01/06 08:22:21;;;;;;;0.80;0.80;;;3.00;99.90;;;;;;5037586;28;20211;-77
2022/01/06 08:24:46;;;;;;;0.50;0.50;;;3.00;99.90;;;;;;5042978;28;20205;-77
2022/01/06 08:27:12;;;;;;;20.60;4.37;;;3.00;99.90;;;;;;5057646;28;20251;-77
2022/01/06 08:29:38;;;;;;;0.43;0.43;;;3.10;99.90;;;;;;5057968;28;20188;-77
2022/01/06 08:32:05;;;;;;;0.13;0.13;;;3.10;99.90;;;;;;5056901;28;20209;-77
2022/01/06 08:34:30;;;;;;;5.40;2.77;;;3.20;99.90;;;;;;5057987;28;20203;-78
2022/01/06 08:36:56;;;;;;;0.97;0.97;;;3.20;99.90;;;;;;5057457;28;20516;-77
2022/01/06 08:39:22;;;;;;;0.93;0.57;;;3.10;99.90;;;;;;5057187;28;20173;-76
2022/01/06 08:41:49;;;;;;;1.20;1.20;;;3.10;99.90;;;;;;5056409;28;20191;-77
2022/01/06 08:44:15;;;;;;;0.50;0.50;;;3.10;99.90;;;;;;5059608;28;20227;-77
2022/01/06 08:46:41;;;;;;;0.53;0.53;;;3.10;99.90;;;;;;5057019;28;20199;-77
2022/01/06 08:49:11;;;;;;;1.03;1.03;;;3.10;99.90;;;;;;5056622;28;20171;-77
2022/01/06 08:51:37;;;;;;;1.97;1.77;;;3.00;99.90;;;;;;5055778;28;20211;-77
2022/01/06 08:54:03;;;;;;;2.10;2.00;;;3.00;99.90;;;;;;5056708;28;20727;-77
2022/01/06 08:56:29;;;;;;;3.13;2.13;;;3.10;99.90;;;;;;5056522;28;20181;-76
2022/01/06 08:58:55;;;;;;;2.90;2.70;;;3.10;99.90;;;;;;5057659;28;20267;-77
2022/01/06 09:01:21;;;;;;;0.43;0.43;;;3.10;99.90;;;;;;5055847;28;20190;-78
2022/01/06 09:03:47;;;;;;;1.07;1.07;;;;;;;;;;5056793;28;20291;-77
2022/01/06 09:06:12;;;;;;;4.40;1.77;;;3.10;99.90;;;;;;5056513;28;20190;-77
2022/01/06 09:08:38;;;;;;;1.03;1.03;;;3.20;99.90;;;;;;5057109;28;20220;-77
2022/01/06 09:11:04;;;;;;;1.00;1.00;;;3.10;99.90;;;;;;5039936;28;20218;-80
2022/01/06 09:13:29;;;;;;;1.13;1.03;;;3.10;99.90;;;;;;5057099;28;20207;-77
2022/01/06 09:15:55;;;;;;;2.83;2.30;;;3.20;99.90;;;;;;5057058;28;20197;-78
2022/01/06 09:18:21;;;;;;;1.63;0.73;;;3.20;99.90;;;;;;5039215;28;20267;-77
2022/01/06 09:20:47;;;;;;;1.90;1.80;;;3.20;99.90;;;;;;5057190;28;20262;-76
2022/01/06 09:23:13;;;;;;;0.80;0.80;;;3.20;99.90;;;;;;5056237;28;20254;-77
2022/01/06 09:25:38;;;;;;;1.83;1.73;;;3.20;99.90;;;;;;5057109;28;20215;-77
2022/01/06 09:28:04;;;;;;;25.37;2.10;;;3.30;99.90;;;;;;5056780;28;20173;-77
2022/01/06 09:30:30;;;;;;;2.23;2.03;;;3.20;99.90;;;;;;5056839;28;20706;-78
2022/01/06 09:32:55;;;;;;;0.00;0.00;;;3.20;99.90;;;;;;5056130;28;20193;-77
2022/01/06 09:35:22;;;;;;;1.30;1.30;;;3.30;99.90;;;;;;5056095;28;20180;-77
2022/01/06 09:37:47;;;;;;;4.13;3.73;;;3.30;99.90;;;;;;5056982;28;20195;-77
2022/01/06 09:40:13;;;;;;;0.40;0.40;;;3.30;99.90;;;;;;5057672;28;20188;-76
2022/01/06 09:42:43;;;;;;;6.47;1.50;;;3.40;99.90;;;;;;5057656;28;20226;-77
2022/01/06 09:45:10;;;;;;;0.57;0.57;;;3.40;99.90;;;;;;5059809;28;20188;-77
2022/01/06 09:47:37;;;;;;;2.07;1.93;;;3.30;99.90;;;;;;5058731;28;20555;-78
2022/01/06 09:50:05;;;;;;;1.23;1.23;;;3.40;99.90;;;;;;5059276;28;20243;-77
2022/01/06 09:52:33;;;;;;;0.20;0.20;;;3.40;99.90;;;;;;5058519;28;20200;-77
2022/01/06 09:54:59;;;;;;;2.43;1.50;;;3.40;99.90;;;;;;5058521;28;20177;-77
2022/01/06 09:57:25;;;;;;;4.37;2.20;;;3.40;99.90;;;;;;5058196;28;20187;-77
2022/01/06 09:59:50;;;;;;;0.33;0.33;;;3.50;99.90;;;;;;5059113;28;20556;-77
2022/01/06 10:02:16;;;;;;;0.37;0.37;;;3.50;99.90;;;;;;5059171;28;20203;-77
2022/01/06 10:04:56;;;;;;;5.83;2.33;;;3.50;99.90;;;;;;5062643;28;20177;-77
2022/01/06 10:07:22;;;;;;;2.70;2.47;;;3.60;99.90;;;;;;5064441;28;20180;-76
2022/01/06 10:09:50;;;;;;;0.90;0.90;;;3.60;99.90;;;;;;5065701;28;20205;-76
2022/01/06 10:12:16;;;;;;;1.47;1.37;;;3.70;99.90;;;;;;5066949;28;20248;-77
2022/01/06 10:14:45;;;;;;;1.37;1.33;;;3.80;99.90;;;;;;5068066;28;20188;-76
2022/01/06 10:17:29;;;;;;;0.03;0.03;;;3.90;99.90;;;;;;5062001;28;20181;-76
2022/01/06 10:19:54;;;;;;;1.60;1.53;;;4.00;99.90;;;;;;5054111;28;20270;-76
2022/01/06 10:22:21;;;;;;;2.43;1.23;;;4.00;99.90;;;;;;5053138;28;20233;-77
2022/01/06 10:24:48;;;;;;;5.93;2.93;;;4.10;99.90;;;;;;5032998;28;20252;-77
2022/01/06 10:27:16;;;;;;;1.03;1.03;;;4.30;99.90;;;;;;5033702;28;20189;-78
2022/01/06 10:29:44;;;;;;;1.37;1.27;;;4.50;99.90;;;;;;5032552;28;20197;-77
2022/01/06 10:32:15;;;;;;;2.00;1.90;;;4.60;99.90;;;;;;5034001;28;20593;-77
2022/01/06 10:34:50;;;;;;;5.17;1.90;;;4.90;99.90;;;;;;5037514;28;20243;-77
2022/01/06 10:37:22;;;;;;;1.30;1.30;;;5.10;99.90;;;;;;5037910;28;20200;-76
2022/01/06 10:39:51;;;;;;;2.40;1.80;;;5.30;99.90;;;;;;5037817;28;20181;-77
2022/01/06 10:42:20;;;;;;;3.93;1.47;;;5.30;99.90;;;;;;5037391;28;20201;-77
2022/01/06 10:44:51;;;;;;;4.67;2.57;;;5.60;99.90;;;;;;5035461;28;20253;-76
2022/01/06 10:47:33;;;;;;;0.73;0.73;;;5.90;99.90;;;;;;5036969;28;20182;-77
2022/01/06 10:50:12;;;;;;;22.07;3.00;;;6.10;99.90;;;;;;5036382;28;20241;-77
2022/01/06 10:52:40;;;;;;;2.63;2.43;;;6.30;99.90;;;;;;5037623;28;20229;-77
2022/01/06 10:55:25;;;;;;;1.33;1.23;;;6.20;99.90;;;;;;5037265;28;20588;-77
2022/01/06 10:57:55;;;;;;;0.60;0.60;;;6.10;99.90;;;;;;5036647;28;20217;-77
2022/01/06 11:00:24;;;;;;;3.10;0.67;;;6.10;99.90;;;;;;5038042;28;20553;-77
2022/01/06 11:02:50;;;;;;;0.20;0.20;;;6.30;99.90;;;;;;5037616;28;20205;-77
2022/01/06 11:05:16;;;;;;;3.80;2.73;;;6.70;99.90;;;;;;5036531;28;20169;-77
2022/01/06 11:07:42;;;;;;;2.53;2.40;;;7.40;99.90;;;;;;5036204;28;20185;-77
2022/01/06 11:10:15;;;;;;;1.20;1.20;;;7.90;99.90;;;;;;5037304;28;20208;-77
2022/01/06 11:12:41;;;;;;;2.70;1.30;;;8.40;99.90;;;;;;5022849;28;20200;-77
2022/01/06 11:15:08;;;;;;;1.13;0.97;;;8.80;99.90;;;;;;5030765;28;20180;-77
2022/01/06 11:17:34;;;;;;;1.60;1.60;;;9.10;99.90;;;;;;5040880;28;20173;-78
2022/01/06 11:20:00;;;;;;;1.70;1.60;;;9.20;99.90;;;;;;5040755;28;20591;-78
2022/01/06 11:22:26;;;;;;;1.27;1.27;;;9.90;99.90;;;;;;5039961;28;20201;-78
2022/01/06 11:24:57;;;;;;;7.33;1.90;;;10.20;99.90;;;;;;5046396;28;20185;-77
2022/01/06 11:27:36;;;;;;;0.83;0.50;;;11.20;99.90;;;;;;5044468;28;20181;-78
2022/01/06 11:30:12;;;;;;;0.73;0.73;;;11.60;99.90;;;;;;5042848;28;20287;-77
2022/01/06 11:32:38;;;;;;;3.47;2.97;;;10.60;99.90;;;;;;5061289;28;20683;-78
2022/01/06 11:35:15;;;;;;;1.43;1.43;;;10.80;99.90;;;;;;5061243;28;20187;-77
2022/01/06 11:37:49;;;;;;;2.90;2.30;;;12.00;99.90;;;;;;5059877;28;20180;-78
2022/01/06 11:40:28;;;;;;;0.30;0.30;;;12.70;99.90;;;;;;5061156;28;20180;-78
2022/01/06 11:42:55;;;;;;;1.53;1.53;;;12.40;99.90;;;;;;5060789;28;20211;-77
2022/01/06 11:45:22;;;;;;;2.20;2.00;;;11.10;99.90;;;;;;5060038;28;20207;-77
2022/01/06 11:48:03;;;;;;;7.73;1.73;;;10.20;99.90;;;;;;5059946;28;20667;-77
2022/01/06 11:50:39;;;;;;;0.90;0.77;;;9.00;99.90;;;;;;5055791;28;20250;-78
2022/01/06 11:53:04;;;;;;;1.40;1.23;;;7.50;99.90;;;;;;5057651;28;20188;-77
2022/01/06 11:55:44;;;;;;;0.53;0.53;;;7.20;99.90;;;;;;5058918;28;20177;-77
2022/01/06 11:58:19;;;;;;;1.93;1.90;;;7.10;99.90;;;;;;5059129;28;20173;-77
2022/01/06 12:00:59;;;;;;;3.33;2.70;;;7.00;99.90;;;;;;5040776;28;20181;-77
2022/01/06 12:03:35;;;;;;;4.63;2.37;;;7.00;99.90;;;;;;5058208;28;20266;-77
2022/01/06 12:06:01;;;;;;;1.40;1.07;;;7.10;99.90;;;;;;5053923;28;20172;-77
2022/01/06 12:08:41;;;;;;;1.20;0.67;;;7.20;99.90;;;;;;5041064;28;20185;-77
2022/01/06 12:11:33;;;;;;;3.33;2.20;;;7.20;99.90;;;;;;5057322;28;20196;-77
2022/01/06 12:14:00;;;;;;;0.37;0.37;;;7.20;99.90;;;;;;5040209;28;20193;-77
2022/01/06 12:16:30;;;;;;;1.00;0.97;;;7.50;99.90;;;;;;5058457;28;20582;-77
2022/01/06 12:18:56;;;;;;;3.00;2.67;;;9.60;99.90;;;;;;5058728;28;20199;-77
2022/01/06 12:21:23;;;;;;;2.83;2.33;;;9.50;99.90;;;;;;5059421;28;20177;-77
2022/01/06 12:24:03;;;;;;;3.93;1.93;;;10.10;99.90;;;;;;5057749;28;20211;-77
2022/01/06 12:26:30;;;;;;;7.80;2.20;;;10.60;99.90;;;;;;5057717;28;20197;-77
2022/01/06 12:28:55;;;;;;;1.10;1.10;;;11.80;99.90;;;;;;5058200;28;20177;-77
2022/01/06 12:31:26;;;;;;;0.97;0.50;;;12.40;99.90;;;;;;5059554;28;20766;-77
2022/01/06 12:33:58;;;;;;;1.00;1.00;;;12.30;99.90;;;;;;5059050;28;20197;-78
2022/01/06 12:36:25;;;;;;;0.77;0.77;;;13.00;99.90;;;;;;5042194;28;20181;-77
2022/01/06 12:38:51;;;;;;;1.67;1.57;;;13.70;99.90;;;;;;5059578;28;20283;-76
2022/01/06 12:41:29;;;;;;;1.40;1.30;;;11.90;99.90;;;;;;5058139;28;20664;-74
2022/01/06 12:43:56;;;;;;;22.53;3.00;;;11.20;99.90;;;;;;5057810;28;20211;-77
2022/01/06 12:46:29;;;;;;;2.23;1.20;;;10.00;99.90;;;;;;5057993;28;20197;-77
2022/01/06 12:48:55;;;;;;;2.93;2.43;;;8.80;99.90;;;;;;5040375;28;20563;-76
2022/01/06 12:51:25;;;;;;;1.80;1.03;;;8.20;99.90;;;;;;5058016;28;20242;-77
2022/01/06 12:53:59;;;;;;;2.93;2.67;;;8.70;99.90;;;;;;5041911;28;20197;-77
2022/01/06 12:56:37;;;;;;;1.03;1.03;;;9.70;99.90;;;;;;5041719;28;20172;-77
2022/01/06 12:59:14;;;;;;;0.77;0.77;;;10.40;99.90;;;;;;5060564;28;20238;-76
2022/01/06 13:01:41;;;;;;;4.70;2.73;;;10.40;99.90;;;;;;5043286;28;20333;-77
2022/01/06 13:04:09;;;;;;;1.83;1.30;;;10.10;99.90;;;;;;5040556;28;20185;-77
2022/01/06 13:06:36;;;;;;;6.00;2.83;;;10.30;99.90;;;;;;5052489;28;20220;-77